Terminal Aerodrome Forecast
Issued by NWS

Current Version | Previous Version | Graphics & Text | Print | Product List | Glossary On
Versions: 1 2 3 4 5 6 7 8 9 10 11 12 13 14 15 16 17 18 19 20 21 22 23 24 25 26 27
150
FTUS41 KRLX 051743
TAFCKB
TAF
KCKB 051743Z 0518/0618 26005KT P6SM BKN025
     FM052100 VRB03KT P6SM SCT035
     FM061000 11006KT P6SM OVC200
     FM061200 12008KT P6SM -RA OVC080
     FM061400 11007KT 3SM -RA OVC025
     FM061500 11007KT 2SM -RA OVC008=

USA.gov is the U.S. government's official web portal to all federal, state and local government web resources and services.